sensor_id;sensor_type;location;lat;lon;timestamp;P1;durP1;ratioP1;P2;durP2;ratioP2
48629;SDS011;34426;52.180;4.462;2022-10-31T00:00:03;6.25;;;2.38;;
48629;SDS011;34426;52.180;4.462;2022-10-31T00:02:30;5.55;;;2.40;;
48629;SDS011;34426;52.180;4.462;2022-10-31T00:04:56;6.38;;;2.20;;
48629;SDS011;34426;52.180;4.462;2022-10-31T00:07:22;10.43;;;2.17;;
48629;SDS011;34426;52.180;4.462;2022-10-31T00:09:48;5.93;;;2.08;;
48629;SDS011;34426;52.180;4.462;2022-10-31T00:12:14;11.18;;;2.33;;
48629;SDS011;34426;52.180;4.462;2022-10-31T00:14:41;8.15;;;2.58;;
48629;SDS011;34426;52.180;4.462;2022-10-31T00:17:09;3.88;;;2.33;;
48629;SDS011;34426;52.180;4.462;2022-10-31T00:19:35;5.53;;;2.20;;
48629;SDS011;34426;52.180;4.462;2022-10-31T00:22:01;5.82;;;2.17;;
48629;SDS011;34426;52.180;4.462;2022-10-31T00:24:27;5.88;;;2.17;;
48629;SDS011;34426;52.180;4.462;2022-10-31T00:26:53;8.02;;;2.17;;
48629;SDS011;34426;52.180;4.462;2022-10-31T00:29:20;5.30;;;2.30;;
48629;SDS011;34426;52.180;4.462;2022-10-31T00:31:46;5.35;;;3.00;;
48629;SDS011;34426;52.180;4.462;2022-10-31T00:34:14;5.82;;;2.50;;
48629;SDS011;34426;52.180;4.462;2022-10-31T00:36:40;8.75;;;2.50;;
48629;SDS011;34426;52.180;4.462;2022-10-31T00:39:06;5.20;;;2.35;;
48629;SDS011;34426;52.180;4.462;2022-10-31T00:41:32;4.38;;;2.72;;
48629;SDS011;34426;52.180;4.462;2022-10-31T00:43:58;6.50;;;2.65;;
48629;SDS011;34426;52.180;4.462;2022-10-31T00:46:24;3.70;;;2.03;;
48629;SDS011;34426;52.180;4.462;2022-10-31T00:48:51;9.50;;;2.50;;
48629;SDS011;34426;52.180;4.462;2022-10-31T00:51:19;5.53;;;2.45;;
48629;SDS011;34426;52.180;4.462;2022-10-31T00:53:45;4.00;;;2.33;;
48629;SDS011;34426;52.180;4.462;2022-10-31T00:56:11;5.32;;;2.47;;
48629;SDS011;34426;52.180;4.462;2022-10-31T00:58:37;8.55;;;2.72;;
48629;SDS011;34426;52.180;4.462;2022-10-31T01:01:04;7.30;;;2.15;;
48629;SDS011;34426;52.180;4.462;2022-10-31T01:03:30;3.83;;;2.15;;
48629;SDS011;34426;52.180;4.462;2022-10-31T01:05:58;7.00;;;2.45;;
48629;SDS011;34426;52.180;4.462;2022-10-31T01:08:26;4.32;;;2.30;;
48629;SDS011;34426;52.180;4.462;2022-10-31T01:11:01;7.57;;;2.40;;
48629;SDS011;34426;52.180;4.462;2022-10-31T01:13:28;6.60;;;2.30;;
48629;SDS011;34426;52.180;4.462;2022-10-31T01:15:54;6.28;;;2.60;;
48629;SDS011;34426;52.180;4.462;2022-10-31T01:18:20;4.78;;;2.50;;
48629;SDS011;34426;52.180;4.462;2022-10-31T01:20:46;6.10;;;2.47;;
48629;SDS011;34426;52.180;4.462;2022-10-31T01:23:12;7.65;;;2.72;;
48629;SDS011;34426;52.180;4.462;2022-10-31T01:25:40;5.10;;;2.30;;
48629;SDS011;34426;52.180;4.462;2022-10-31T01:28:07;8.57;;;2.70;;
48629;SDS011;34426;52.180;4.462;2022-10-31T01:30:33;7.00;;;3.03;;
48629;SDS011;34426;52.180;4.462;2022-10-31T01:32:59;4.05;;;2.47;;
48629;SDS011;34426;52.180;4.462;2022-10-31T01:35:25;6.35;;;3.22;;
48629;SDS011;34426;52.180;4.462;2022-10-31T01:37:51;6.78;;;3.08;;
48629;SDS011;34426;52.180;4.462;2022-10-31T01:40:17;6.38;;;2.80;;
48629;SDS011;34426;52.180;4.462;2022-10-31T01:42:45;6.90;;;2.80;;
48629;SDS011;34426;52.180;4.462;2022-10-31T01:45:12;8.55;;;3.47;;
48629;SDS011;34426;52.180;4.462;2022-10-31T01:47:41;6.43;;;3.55;;
48629;SDS011;34426;52.180;4.462;2022-10-31T01:50:13;10.60;;;4.05;;
48629;SDS011;34426;52.180;4.462;2022-10-31T01:52:41;7.30;;;3.00;;
48629;SDS011;34426;52.180;4.462;2022-10-31T01:55:09;8.57;;;3.85;;
48629;SDS011;34426;52.180;4.462;2022-10-31T01:57:35;7.97;;;3.65;;
48629;SDS011;34426;52.180;4.462;2022-10-31T02:00:06;6.43;;;3.42;;
48629;SDS011;34426;52.180;4.462;2022-10-31T02:02:33;5.30;;;3.42;;
48629;SDS011;34426;52.180;4.462;2022-10-31T02:04:59;8.85;;;3.97;;
48629;SDS011;34426;52.180;4.462;2022-10-31T02:07:26;6.95;;;3.63;;
48629;SDS011;34426;52.180;4.462;2022-10-31T02:09:53;9.20;;;3.50;;
48629;SDS011;34426;52.180;4.462;2022-10-31T02:12:20;6.15;;;4.13;;
48629;SDS011;34426;52.180;4.462;2022-10-31T02:14:47;6.00;;;4.15;;
48629;SDS011;34426;52.180;4.462;2022-10-31T02:17:15;8.48;;;4.05;;
48629;SDS011;34426;52.180;4.462;2022-10-31T02:19:43;7.97;;;3.90;;
48629;SDS011;34426;52.180;4.462;2022-10-31T02:22:13;6.45;;;3.95;;
48629;SDS011;34426;52.180;4.462;2022-10-31T02:24:44;8.68;;;4.50;;
48629;SDS011;34426;52.180;4.462;2022-10-31T02:27:16;7.63;;;4.32;;
48629;SDS011;34426;52.180;4.462;2022-10-31T02:29:54;7.32;;;4.40;;
48629;SDS011;34426;52.180;4.462;2022-10-31T02:32:27;7.28;;;4.43;;
48629;SDS011;34426;52.180;4.462;2022-10-31T02:34:57;12.82;;;4.70;;
48629;SDS011;34426;52.180;4.462;2022-10-31T02:37:25;7.72;;;4.57;;
48629;SDS011;34426;52.180;4.462;2022-10-31T02:39:53;4.88;;;3.80;;
48629;SDS011;34426;52.180;4.462;2022-10-31T02:42:22;10.95;;;4.10;;
48629;SDS011;34426;52.180;4.462;2022-10-31T02:44:54;8.48;;;4.07;;
48629;SDS011;34426;52.180;4.462;2022-10-31T02:47:22;9.43;;;4.43;;
48629;SDS011;34426;52.180;4.462;2022-10-31T02:49:53;10.77;;;4.70;;
48629;SDS011;34426;52.180;4.462;2022-10-31T02:52:23;7.95;;;3.83;;
48629;SDS011;34426;52.180;4.462;2022-10-31T02:54:50;11.85;;;4.28;;
48629;SDS011;34426;52.180;4.462;2022-10-31T02:57:17;17.20;;;5.22;;
48629;SDS011;34426;52.180;4.462;2022-10-31T02:59:47;7.93;;;4.70;;
48629;SDS011;34426;52.180;4.462;2022-10-31T03:02:19;7.70;;;4.53;;
48629;SDS011;34426;52.180;4.462;2022-10-31T03:04:59;8.57;;;4.97;;
48629;SDS011;34426;52.180;4.462;2022-10-31T03:07:30;9.93;;;5.60;;
48629;SDS011;34426;52.180;4.462;2022-10-31T03:09:59;11.80;;;5.93;;
48629;SDS011;34426;52.180;4.462;2022-10-31T03:12:29;12.15;;;6.57;;
48629;SDS011;34426;52.180;4.462;2022-10-31T03:14:58;10.73;;;7.30;;
48629;SDS011;34426;52.180;4.462;2022-10-31T03:17:32;12.70;;;5.90;;
48629;SDS011;34426;52.180;4.462;2022-10-31T03:20:02;14.40;;;6.30;;
48629;SDS011;34426;52.180;4.462;2022-10-31T03:22:30;11.52;;;6.40;;
48629;SDS011;34426;52.180;4.462;2022-10-31T03:24:57;10.38;;;6.70;;
48629;SDS011;34426;52.180;4.462;2022-10-31T03:27:24;15.98;;;10.07;;
48629;SDS011;34426;52.180;4.462;2022-10-31T03:29:51;14.10;;;6.93;;
48629;SDS011;34426;52.180;4.462;2022-10-31T03:32:19;11.35;;;7.90;;
48629;SDS011;34426;52.180;4.462;2022-10-31T03:34:47;10.45;;;7.22;;
48629;SDS011;34426;52.180;4.462;2022-10-31T03:37:17;11.95;;;8.00;;
48629;SDS011;34426;52.180;4.462;2022-10-31T03:39:45;10.80;;;7.85;;
48629;SDS011;34426;52.180;4.462;2022-10-31T03:42:12;14.95;;;8.98;;
48629;SDS011;34426;52.180;4.462;2022-10-31T03:44:41;19.92;;;9.02;;
48629;SDS011;34426;52.180;4.462;2022-10-31T03:47:08;11.95;;;8.40;;
48629;SDS011;34426;52.180;4.462;2022-10-31T03:49:34;13.77;;;7.90;;
48629;SDS011;34426;52.180;4.462;2022-10-31T03:52:02;15.07;;;7.60;;
48629;SDS011;34426;52.180;4.462;2022-10-31T03:54:37;11.55;;;8.38;;
48629;SDS011;34426;52.180;4.462;2022-10-31T03:57:07;10.93;;;7.57;;
48629;SDS011;34426;52.180;4.462;2022-10-31T03:59:35;15.13;;;8.80;;
48629;SDS011;34426;52.180;4.462;2022-10-31T04:02:03;9.45;;;8.20;;
48629;SDS011;34426;52.180;4.462;2022-10-31T04:04:32;11.80;;;8.27;;
48629;SDS011;34426;52.180;4.462;2022-10-31T04:06:58;12.60;;;8.30;;
48629;SDS011;34426;52.180;4.462;2022-10-31T04:09:26;17.52;;;8.75;;
48629;SDS011;34426;52.180;4.462;2022-10-31T04:11:55;13.20;;;9.18;;
48629;SDS011;34426;52.180;4.462;2022-10-31T04:14:22;11.50;;;9.15;;
48629;SDS011;34426;52.180;4.462;2022-10-31T04:16:49;11.13;;;9.35;;
48629;SDS011;34426;52.180;4.462;2022-10-31T04:19:16;22.13;;;8.98;;
48629;SDS011;34426;52.180;4.462;2022-10-31T04:21:42;10.90;;;8.85;;
48629;SDS011;34426;52.180;4.462;2022-10-31T04:24:08;16.40;;;8.80;;
48629;SDS011;34426;52.180;4.462;2022-10-31T04:26:34;14.35;;;8.73;;
48629;SDS011;34426;52.180;4.462;2022-10-31T04:29:02;11.57;;;9.52;;
48629;SDS011;34426;52.180;4.462;2022-10-31T04:31:28;13.38;;;9.98;;
48629;SDS011;34426;52.180;4.462;2022-10-31T04:33:55;16.02;;;9.77;;
48629;SDS011;34426;52.180;4.462;2022-10-31T04:36:21;13.30;;;10.13;;
48629;SDS011;34426;52.180;4.462;2022-10-31T04:38:47;16.65;;;10.25;;
48629;SDS011;34426;52.180;4.462;2022-10-31T04:41:13;11.93;;;9.23;;
48629;SDS011;34426;52.180;4.462;2022-10-31T04:43:38;16.58;;;10.30;;
48629;SDS011;34426;52.180;4.462;2022-10-31T04:46:05;12.82;;;9.73;;
48629;SDS011;34426;52.180;4.462;2022-10-31T04:48:30;19.60;;;10.10;;
48629;SDS011;34426;52.180;4.462;2022-10-31T04:50:58;12.67;;;9.70;;
48629;SDS011;34426;52.180;4.462;2022-10-31T04:53:23;17.40;;;9.48;;
48629;SDS011;34426;52.180;4.462;2022-10-31T04:55:48;11.53;;;9.77;;
48629;SDS011;34426;52.180;4.462;2022-10-31T04:58:13;15.60;;;10.60;;
48629;SDS011;34426;52.180;4.462;2022-10-31T05:00:39;19.17;;;11.63;;
48629;SDS011;34426;52.180;4.462;2022-10-31T05:03:05;16.90;;;11.37;;
48629;SDS011;34426;52.180;4.462;2022-10-31T05:05:31;16.45;;;11.05;;
48629;SDS011;34426;52.180;4.462;2022-10-31T05:07:56;16.98;;;10.93;;
48629;SDS011;34426;52.180;4.462;2022-10-31T05:10:22;17.85;;;11.85;;
48629;SDS011;34426;52.180;4.462;2022-10-31T05:12:48;16.90;;;11.23;;
48629;SDS011;34426;52.180;4.462;2022-10-31T05:15:13;19.08;;;13.05;;
48629;SDS011;34426;52.180;4.462;2022-10-31T05:17:38;16.02;;;12.68;;
48629;SDS011;34426;52.180;4.462;2022-10-31T05:20:06;23.85;;;12.63;;
48629;SDS011;34426;52.180;4.462;2022-10-31T05:22:31;20.17;;;12.98;;
48629;SDS011;34426;52.180;4.462;2022-10-31T05:24:57;23.75;;;15.18;;
48629;SDS011;34426;52.180;4.462;2022-10-31T05:27:22;20.75;;;14.85;;
48629;SDS011;34426;52.180;4.462;2022-10-31T05:29:47;26.10;;;16.48;;
48629;SDS011;34426;52.180;4.462;2022-10-31T05:32:12;26.42;;;17.70;;
48629;SDS011;34426;52.180;4.462;2022-10-31T05:34:38;23.50;;;16.40;;
48629;SDS011;34426;52.180;4.462;2022-10-31T05:37:04;28.07;;;16.87;;
48629;SDS011;34426;52.180;4.462;2022-10-31T05:39:29;32.95;;;16.25;;
48629;SDS011;34426;52.180;4.462;2022-10-31T05:41:55;25.07;;;15.50;;
48629;SDS011;34426;52.180;4.462;2022-10-31T05:44:20;26.57;;;16.47;;
48629;SDS011;34426;52.180;4.462;2022-10-31T05:46:45;23.20;;;14.77;;
48629;SDS011;34426;52.180;4.462;2022-10-31T05:49:11;28.52;;;15.82;;
48629;SDS011;34426;52.180;4.462;2022-10-31T05:51:36;26.47;;;16.03;;
48629;SDS011;34426;52.180;4.462;2022-10-31T05:54:03;24.30;;;16.58;;
48629;SDS011;34426;52.180;4.462;2022-10-31T05:56:28;24.73;;;17.33;;
48629;SDS011;34426;52.180;4.462;2022-10-31T05:58:53;30.73;;;18.70;;
48629;SDS011;34426;52.180;4.462;2022-10-31T06:01:18;30.42;;;18.52;;
48629;SDS011;34426;52.180;4.462;2022-10-31T06:03:43;25.30;;;17.70;;
48629;SDS011;34426;52.180;4.462;2022-10-31T06:06:09;27.93;;;19.67;;
48629;SDS011;34426;52.180;4.462;2022-10-31T06:08:35;25.90;;;17.50;;
48629;SDS011;34426;52.180;4.462;2022-10-31T06:11:01;27.38;;;17.65;;
48629;SDS011;34426;52.180;4.462;2022-10-31T06:13:27;28.02;;;18.63;;
48629;SDS011;34426;52.180;4.462;2022-10-31T06:15:52;32.30;;;19.87;;
48629;SDS011;34426;52.180;4.462;2022-10-31T06:18:17;30.43;;;19.63;;
48629;SDS011;34426;52.180;4.462;2022-10-31T06:20:42;31.67;;;20.27;;
48629;SDS011;34426;52.180;4.462;2022-10-31T06:23:08;29.85;;;18.88;;
48629;SDS011;34426;52.180;4.462;2022-10-31T06:25:33;27.77;;;19.27;;
48629;SDS011;34426;52.180;4.462;2022-10-31T06:27:59;25.55;;;19.40;;
48629;SDS011;34426;52.180;4.462;2022-10-31T06:30:25;33.10;;;22.30;;
48629;SDS011;34426;52.180;4.462;2022-10-31T06:32:50;28.85;;;21.58;;
48629;SDS011;34426;52.180;4.462;2022-10-31T06:35:15;30.83;;;21.98;;
48629;SDS011;34426;52.180;4.462;2022-10-31T06:37:40;35.20;;;22.20;;
48629;SDS011;34426;52.180;4.462;2022-10-31T06:40:06;35.13;;;23.37;;
48629;SDS011;34426;52.180;4.462;2022-10-31T06:42:31;37.40;;;26.25;;
48629;SDS011;34426;52.180;4.462;2022-10-31T06:44:58;36.07;;;24.87;;
48629;SDS011;34426;52.180;4.462;2022-10-31T06:47:23;38.60;;;25.77;;
48629;SDS011;34426;52.180;4.462;2022-10-31T06:49:48;41.60;;;26.83;;
48629;SDS011;34426;52.180;4.462;2022-10-31T06:52:13;43.33;;;26.57;;
48629;SDS011;34426;52.180;4.462;2022-10-31T06:54:39;39.60;;;27.00;;
48629;SDS011;34426;52.180;4.462;2022-10-31T06:57:04;37.73;;;25.97;;
48629;SDS011;34426;52.180;4.462;2022-10-31T06:59:29;39.10;;;26.60;;
48629;SDS011;34426;52.180;4.462;2022-10-31T07:01:57;47.00;;;29.88;;
48629;SDS011;34426;52.180;4.462;2022-10-31T07:04:22;38.97;;;28.05;;
48629;SDS011;34426;52.180;4.462;2022-10-31T07:06:47;43.87;;;30.00;;
48629;SDS011;34426;52.180;4.462;2022-10-31T07:09:15;50.42;;;30.80;;
48629;SDS011;34426;52.180;4.462;2022-10-31T07:11:40;43.73;;;27.80;;
48629;SDS011;34426;52.180;4.462;2022-10-31T07:14:05;45.10;;;29.23;;
48629;SDS011;34426;52.180;4.462;2022-10-31T07:16:30;52.97;;;30.63;;
48629;SDS011;34426;52.180;4.462;2022-10-31T07:18:57;45.22;;;30.10;;
48629;SDS011;34426;52.180;4.462;2022-10-31T07:21:22;45.92;;;30.10;;
48629;SDS011;34426;52.180;4.462;2022-10-31T07:23:48;46.03;;;28.60;;
48629;SDS011;34426;52.180;4.462;2022-10-31T07:26:13;48.88;;;29.92;;
48629;SDS011;34426;52.180;4.462;2022-10-31T07:28:38;46.53;;;28.77;;
48629;SDS011;34426;52.180;4.462;2022-10-31T07:31:03;48.23;;;31.63;;
48629;SDS011;34426;52.180;4.462;2022-10-31T07:33:28;47.38;;;30.38;;
48629;SDS011;34426;52.180;4.462;2022-10-31T07:35:55;47.45;;;31.13;;
48629;SDS011;34426;52.180;4.462;2022-10-31T07:38:20;49.55;;;32.05;;
48629;SDS011;34426;52.180;4.462;2022-10-31T07:40:49;48.73;;;31.20;;
48629;SDS011;34426;52.180;4.462;2022-10-31T07:43:14;52.60;;;31.88;;
48629;SDS011;34426;52.180;4.462;2022-10-31T07:45:39;59.57;;;33.07;;
48629;SDS011;34426;52.180;4.462;2022-10-31T07:48:05;58.15;;;33.00;;
48629;SDS011;34426;52.180;4.462;2022-10-31T07:50:31;53.13;;;31.65;;
48629;SDS011;34426;52.180;4.462;2022-10-31T07:53:01;55.78;;;33.60;;
48629;SDS011;34426;52.180;4.462;2022-10-31T07:55:27;56.85;;;33.42;;
48629;SDS011;34426;52.180;4.462;2022-10-31T07:57:56;56.95;;;32.95;;
48629;SDS011;34426;52.180;4.462;2022-10-31T08:00:22;53.72;;;32.47;;
48629;SDS011;34426;52.180;4.462;2022-10-31T08:02:47;50.08;;;32.25;;
48629;SDS011;34426;52.180;4.462;2022-10-31T08:05:12;58.13;;;31.77;;
48629;SDS011;34426;52.180;4.462;2022-10-31T08:07:37;56.35;;;32.22;;
48629;SDS011;34426;52.180;4.462;2022-10-31T08:10:04;51.80;;;33.60;;
48629;SDS011;34426;52.180;4.462;2022-10-31T08:12:30;50.45;;;32.80;;
48629;SDS011;34426;52.180;4.462;2022-10-31T08:14:55;54.10;;;31.93;;
48629;SDS011;34426;52.180;4.462;2022-10-31T08:17:20;53.10;;;31.03;;
48629;SDS011;34426;52.180;4.462;2022-10-31T08:19:45;51.33;;;30.92;;
48629;SDS011;34426;52.180;4.462;2022-10-31T08:22:11;49.90;;;29.53;;
48629;SDS011;34426;52.180;4.462;2022-10-31T08:24:36;47.53;;;29.55;;
48629;SDS011;34426;52.180;4.462;2022-10-31T08:27:02;46.07;;;28.43;;
48629;SDS011;34426;52.180;4.462;2022-10-31T08:29:28;52.35;;;29.10;;
48629;SDS011;34426;52.180;4.462;2022-10-31T08:31:53;47.47;;;26.80;;
48629;SDS011;34426;52.180;4.462;2022-10-31T08:34:18;41.23;;;26.23;;
48629;SDS011;34426;52.180;4.462;2022-10-31T08:36:43;58.83;;;28.37;;
48629;SDS011;34426;52.180;4.462;2022-10-31T08:39:08;43.70;;;27.00;;
48629;SDS011;34426;52.180;4.462;2022-10-31T08:41:34;53.55;;;29.15;;
48629;SDS011;34426;52.180;4.462;2022-10-31T08:44:00;54.50;;;28.80;;
48629;SDS011;34426;52.180;4.462;2022-10-31T08:46:25;48.13;;;28.85;;
48629;SDS011;34426;52.180;4.462;2022-10-31T08:48:51;53.10;;;30.55;;
48629;SDS011;34426;52.180;4.462;2022-10-31T08:51:16;51.50;;;30.77;;
48629;SDS011;34426;52.180;4.462;2022-10-31T08:53:41;64.03;;;32.70;;
48629;SDS011;34426;52.180;4.462;2022-10-31T08:56:06;50.17;;;30.67;;
48629;SDS011;34426;52.180;4.462;2022-10-31T08:58:32;60.17;;;32.30;;
48629;SDS011;34426;52.180;4.462;2022-10-31T09:00:59;55.17;;;29.27;;
48629;SDS011;34426;52.180;4.462;2022-10-31T09:03:25;58.70;;;31.58;;
48629;SDS011;34426;52.180;4.462;2022-10-31T09:05:50;54.28;;;32.13;;
48629;SDS011;34426;52.180;4.462;2022-10-31T09:08:19;62.55;;;32.28;;
48629;SDS011;34426;52.180;4.462;2022-10-31T09:10:44;59.47;;;32.90;;
48629;SDS011;34426;52.180;4.462;2022-10-31T09:13:10;53.65;;;31.70;;
48629;SDS011;34426;52.180;4.462;2022-10-31T09:15:36;62.20;;;34.20;;
48629;SDS011;34426;52.180;4.462;2022-10-31T09:18:03;56.65;;;33.13;;
48629;SDS011;34426;52.180;4.462;2022-10-31T09:20:29;55.50;;;32.45;;
48629;SDS011;34426;52.180;4.462;2022-10-31T09:22:55;63.97;;;35.60;;
48629;SDS011;34426;52.180;4.462;2022-10-31T09:25:21;53.20;;;34.33;;
48629;SDS011;34426;52.180;4.462;2022-10-31T09:27:46;52.53;;;33.50;;
48629;SDS011;34426;52.180;4.462;2022-10-31T09:30:11;57.40;;;33.73;;
48629;SDS011;34426;52.180;4.462;2022-10-31T09:32:37;47.63;;;31.35;;
48629;SDS011;34426;52.180;4.462;2022-10-31T09:35:03;50.53;;;30.90;;
48629;SDS011;34426;52.180;4.462;2022-10-31T09:37:29;44.92;;;28.15;;
48629;SDS011;34426;52.180;4.462;2022-10-31T09:39:54;44.65;;;28.50;;
48629;SDS011;34426;52.180;4.462;2022-10-31T09:42:26;45.65;;;27.52;;
48629;SDS011;34426;52.180;4.462;2022-10-31T09:44:56;38.47;;;25.63;;
48629;SDS011;34426;52.180;4.462;2022-10-31T09:47:26;36.45;;;25.52;;
48629;SDS011;34426;52.180;4.462;2022-10-31T09:49:59;44.20;;;26.42;;
48629;SDS011;34426;52.180;4.462;2022-10-31T09:52:29;43.75;;;24.75;;
48629;SDS011;34426;52.180;4.462;2022-10-31T09:54:54;38.13;;;24.55;;
48629;SDS011;34426;52.180;4.462;2022-10-31T09:57:23;39.97;;;25.95;;
48629;SDS011;34426;52.180;4.462;2022-10-31T09:59:49;34.72;;;25.38;;
48629;SDS011;34426;52.180;4.462;2022-10-31T10:02:16;43.47;;;26.63;;
48629;SDS011;34426;52.180;4.462;2022-10-31T10:04:44;40.83;;;25.98;;
48629;SDS011;34426;52.180;4.462;2022-10-31T10:07:14;35.58;;;24.40;;
48629;SDS011;34426;52.180;4.462;2022-10-31T10:09:43;39.03;;;25.67;;
48629;SDS011;34426;52.180;4.462;2022-10-31T10:12:12;40.50;;;24.73;;
48629;SDS011;34426;52.180;4.462;2022-10-31T10:14:42;37.13;;;24.77;;
48629;SDS011;34426;52.180;4.462;2022-10-31T10:17:11;37.53;;;25.45;;
48629;SDS011;34426;52.180;4.462;2022-10-31T10:19:45;40.63;;;23.92;;
48629;SDS011;34426;52.180;4.462;2022-10-31T10:22:14;34.05;;;22.25;;
48629;SDS011;34426;52.180;4.462;2022-10-31T10:24:48;34.83;;;22.65;;
48629;SDS011;34426;52.180;4.462;2022-10-31T10:27:20;32.88;;;21.42;;
48629;SDS011;34426;52.180;4.462;2022-10-31T10:29:50;36.97;;;21.77;;
48629;SDS011;34426;52.180;4.462;2022-10-31T10:32:17;33.63;;;21.77;;
48629;SDS011;34426;52.180;4.462;2022-10-31T10:34:45;31.77;;;21.90;;
48629;SDS011;34426;52.180;4.462;2022-10-31T10:37:16;30.58;;;21.73;;
48629;SDS011;34426;52.180;4.462;2022-10-31T10:39:44;37.42;;;22.80;;
48629;SDS011;34426;52.180;4.462;2022-10-31T10:42:12;35.13;;;22.13;;
48629;SDS011;34426;52.180;4.462;2022-10-31T10:44:38;32.08;;;22.75;;
48629;SDS011;34426;52.180;4.462;2022-10-31T10:47:04;48.13;;;23.63;;
48629;SDS011;34426;52.180;4.462;2022-10-31T10:49:31;38.77;;;23.10;;
48629;SDS011;34426;52.180;4.462;2022-10-31T10:51:58;39.22;;;22.20;;
48629;SDS011;34426;52.180;4.462;2022-10-31T10:54:35;42.47;;;24.10;;
48629;SDS011;34426;52.180;4.462;2022-10-31T10:57:05;35.25;;;21.88;;
48629;SDS011;34426;52.180;4.462;2022-10-31T10:59:32;32.15;;;22.20;;
48629;SDS011;34426;52.180;4.462;2022-10-31T11:01:59;35.63;;;21.35;;
48629;SDS011;34426;52.180;4.462;2022-10-31T11:04:25;41.57;;;22.30;;
48629;SDS011;34426;52.180;4.462;2022-10-31T11:07:02;39.30;;;22.95;;
48629;SDS011;34426;52.180;4.462;2022-10-31T11:09:27;35.65;;;21.40;;
48629;SDS011;34426;52.180;4.462;2022-10-31T11:11:53;43.10;;;23.75;;
48629;SDS011;34426;52.180;4.462;2022-10-31T11:14:19;42.88;;;23.10;;
48629;SDS011;34426;52.180;4.462;2022-10-31T11:16:47;41.45;;;24.40;;
48629;SDS011;34426;52.180;4.462;2022-10-31T11:19:14;31.55;;;22.83;;
48629;SDS011;34426;52.180;4.462;2022-10-31T11:21:40;39.55;;;24.90;;
48629;SDS011;34426;52.180;4.462;2022-10-31T11:24:11;48.33;;;25.90;;
48629;SDS011;34426;52.180;4.462;2022-10-31T11:26:37;42.38;;;24.70;;
48629;SDS011;34426;52.180;4.462;2022-10-31T11:29:03;40.08;;;25.52;;
48629;SDS011;34426;52.180;4.462;2022-10-31T11:31:29;45.10;;;25.35;;
48629;SDS011;34426;52.180;4.462;2022-10-31T11:33:59;45.17;;;27.38;;
48629;SDS011;34426;52.180;4.462;2022-10-31T11:36:25;41.00;;;25.45;;
48629;SDS011;34426;52.180;4.462;2022-10-31T11:38:51;43.92;;;24.65;;
48629;SDS011;34426;52.180;4.462;2022-10-31T11:41:17;40.58;;;25.33;;
48629;SDS011;34426;52.180;4.462;2022-10-31T11:43:45;37.00;;;25.10;;
48629;SDS011;34426;52.180;4.462;2022-10-31T11:46:11;38.88;;;24.35;;
48629;SDS011;34426;52.180;4.462;2022-10-31T11:48:37;52.65;;;25.73;;
48629;SDS011;34426;52.180;4.462;2022-10-31T11:51:03;38.90;;;23.63;;
48629;SDS011;34426;52.180;4.462;2022-10-31T11:53:30;37.08;;;23.40;;
48629;SDS011;34426;52.180;4.462;2022-10-31T11:56:01;42.60;;;23.38;;
48629;SDS011;34426;52.180;4.462;2022-10-31T11:58:27;36.55;;;21.67;;
48629;SDS011;34426;52.180;4.462;2022-10-31T12:00:53;38.87;;;21.67;;
48629;SDS011;34426;52.180;4.462;2022-10-31T12:03:25;35.17;;;20.40;;
48629;SDS011;34426;52.180;4.462;2022-10-31T12:05:54;34.80;;;21.08;;
48629;SDS011;34426;52.180;4.462;2022-10-31T12:08:21;39.22;;;20.77;;
48629;SDS011;34426;52.180;4.462;2022-10-31T12:10:50;29.55;;;19.98;;
48629;SDS011;34426;52.180;4.462;2022-10-31T12:13:24;38.08;;;20.33;;
48629;SDS011;34426;52.180;4.462;2022-10-31T12:15:55;34.92;;;19.77;;
48629;SDS011;34426;52.180;4.462;2022-10-31T12:18:29;33.55;;;19.02;;
48629;SDS011;34426;52.180;4.462;2022-10-31T12:21:06;37.28;;;19.25;;
48629;SDS011;34426;52.180;4.462;2022-10-31T12:23:37;32.05;;;21.27;;
48629;SDS011;34426;52.180;4.462;2022-10-31T12:26:08;33.65;;;20.77;;
48629;SDS011;34426;52.180;4.462;2022-10-31T12:28:40;34.88;;;22.33;;
48629;SDS011;34426;52.180;4.462;2022-10-31T12:31:15;36.00;;;21.92;;
48629;SDS011;34426;52.180;4.462;2022-10-31T12:33:46;38.72;;;23.77;;
48629;SDS011;34426;52.180;4.462;2022-10-31T12:36:15;35.72;;;22.70;;
48629;SDS011;34426;52.180;4.462;2022-10-31T12:38:52;48.08;;;23.48;;
48629;SDS011;34426;52.180;4.462;2022-10-31T12:41:27;39.47;;;25.15;;
48629;SDS011;34426;52.180;4.462;2022-10-31T12:43:57;38.78;;;25.23;;
48629;SDS011;34426;52.180;4.462;2022-10-31T12:46:25;42.60;;;25.20;;
48629;SDS011;34426;52.180;4.462;2022-10-31T12:48:59;39.55;;;25.23;;
48629;SDS011;34426;52.180;4.462;2022-10-31T12:51:30;46.28;;;26.52;;
48629;SDS011;34426;52.180;4.462;2022-10-31T12:54:05;44.15;;;25.92;;
48629;SDS011;34426;52.180;4.462;2022-10-31T12:56:38;42.72;;;24.48;;
48629;SDS011;34426;52.180;4.462;2022-10-31T12:59:09;37.92;;;23.70;;
48629;SDS011;34426;52.180;4.462;2022-10-31T13:01:36;42.80;;;24.40;;
48629;SDS011;34426;52.180;4.462;2022-10-31T13:04:05;39.92;;;23.65;;
48629;SDS011;34426;52.180;4.462;2022-10-31T13:06:32;37.28;;;24.30;;
48629;SDS011;34426;52.180;4.462;2022-10-31T13:08:59;44.17;;;25.95;;
48629;SDS011;34426;52.180;4.462;2022-10-31T13:11:26;34.58;;;22.95;;
48629;SDS011;34426;52.180;4.462;2022-10-31T13:13:59;38.75;;;25.40;;
48629;SDS011;34426;52.180;4.462;2022-10-31T13:16:28;45.53;;;27.45;;
48629;SDS011;34426;52.180;4.462;2022-10-31T13:18:57;44.38;;;26.92;;
48629;SDS011;34426;52.180;4.462;2022-10-31T13:21:25;43.35;;;26.40;;
48629;SDS011;34426;52.180;4.462;2022-10-31T13:23:51;43.40;;;29.30;;
48629;SDS011;34426;52.180;4.462;2022-10-31T13:26:20;52.13;;;30.15;;
48629;SDS011;34426;52.180;4.462;2022-10-31T13:28:48;51.22;;;29.33;;
48629;SDS011;34426;52.180;4.462;2022-10-31T13:31:15;44.20;;;28.55;;
48629;SDS011;34426;52.180;4.462;2022-10-31T13:33:41;47.45;;;28.73;;
48629;SDS011;34426;52.180;4.462;2022-10-31T13:36:11;49.72;;;30.73;;
48629;SDS011;34426;52.180;4.462;2022-10-31T13:38:40;43.23;;;29.40;;
48629;SDS011;34426;52.180;4.462;2022-10-31T13:41:12;50.10;;;28.98;;
48629;SDS011;34426;52.180;4.462;2022-10-31T13:43:48;44.55;;;28.85;;
48629;SDS011;34426;52.180;4.462;2022-10-31T13:46:23;52.10;;;29.45;;
48629;SDS011;34426;52.180;4.462;2022-10-31T13:48:49;45.42;;;29.20;;
48629;SDS011;34426;52.180;4.462;2022-10-31T13:51:23;50.33;;;30.05;;
48629;SDS011;34426;52.180;4.462;2022-10-31T13:53:56;48.88;;;30.83;;
48629;SDS011;34426;52.180;4.462;2022-10-31T13:56:22;45.42;;;30.58;;
48629;SDS011;34426;52.180;4.462;2022-10-31T13:59:01;59.53;;;32.58;;
48629;SDS011;34426;52.180;4.462;2022-10-31T14:01:28;57.55;;;33.78;;
48629;SDS011;34426;52.180;4.462;2022-10-31T14:03:56;58.25;;;33.30;;
48629;SDS011;34426;52.180;4.462;2022-10-31T14:06:22;53.50;;;32.65;;
48629;SDS011;34426;52.180;4.462;2022-10-31T14:08:49;59.83;;;34.83;;
48629;SDS011;34426;52.180;4.462;2022-10-31T14:11:18;58.88;;;32.83;;
48629;SDS011;34426;52.180;4.462;2022-10-31T14:13:45;54.00;;;33.92;;
48629;SDS011;34426;52.180;4.462;2022-10-31T14:16:16;52.55;;;34.15;;
48629;SDS011;34426;52.180;4.462;2022-10-31T14:18:45;64.03;;;34.90;;
48629;SDS011;34426;52.180;4.462;2022-10-31T14:21:14;60.88;;;35.15;;
48629;SDS011;34426;52.180;4.462;2022-10-31T14:23:39;56.88;;;34.85;;
48629;SDS011;34426;52.180;4.462;2022-10-31T14:26:16;58.28;;;35.22;;
48629;SDS011;34426;52.180;4.462;2022-10-31T14:28:42;59.38;;;36.05;;